sensor_id;sensor_type;location;lat;lon;timestamp;P1;durP1;ratioP1;P2;durP2;ratioP2
52041;SDS011;38052;45.944;13.624;2022-10-16T00:01:28;51.97;;;40.63;;
52041;SDS011;38052;45.944;13.624;2022-10-16T00:03:55;55.33;;;40.78;;
52041;SDS011;38052;45.944;13.624;2022-10-16T00:06:21;52.47;;;41.55;;
52041;SDS011;38052;45.944;13.624;2022-10-16T00:08:48;50.78;;;39.30;;
52041;SDS011;38052;45.944;13.624;2022-10-16T00:11:22;48.03;;;38.30;;
52041;SDS011;38052;45.944;13.624;2022-10-16T00:13:49;49.55;;;38.53;;
52041;SDS011;38052;45.944;13.624;2022-10-16T00:16:16;45.88;;;38.63;;
52041;SDS011;38052;45.944;13.624;2022-10-16T00:18:43;56.03;;;41.25;;
52041;SDS011;38052;45.944;13.624;2022-10-16T00:21:13;51.90;;;38.67;;
52041;SDS011;38052;45.944;13.624;2022-10-16T00:23:40;45.22;;;36.90;;
52041;SDS011;38052;45.944;13.624;2022-10-16T00:26:08;50.35;;;39.70;;
52041;SDS011;38052;45.944;13.624;2022-10-16T00:28:35;50.38;;;38.40;;
52041;SDS011;38052;45.944;13.624;2022-10-16T00:31:05;52.47;;;41.40;;
52041;SDS011;38052;45.944;13.624;2022-10-16T00:33:31;46.57;;;38.37;;
52041;SDS011;38052;45.944;13.624;2022-10-16T00:35:58;51.05;;;39.00;;
52041;SDS011;38052;45.944;13.624;2022-10-16T00:38:25;50.03;;;40.40;;
52041;SDS011;38052;45.944;13.624;2022-10-16T00:40:51;45.92;;;39.03;;
52041;SDS011;38052;45.944;13.624;2022-10-16T00:43:38;54.50;;;40.00;;
52041;SDS011;38052;45.944;13.624;2022-10-16T00:46:10;48.35;;;38.00;;
52041;SDS011;38052;45.944;13.624;2022-10-16T00:48:37;47.63;;;36.45;;
52041;SDS011;38052;45.944;13.624;2022-10-16T00:51:04;45.60;;;36.10;;
52041;SDS011;38052;45.944;13.624;2022-10-16T00:53:32;43.42;;;36.42;;
52041;SDS011;38052;45.944;13.624;2022-10-16T00:55:59;49.55;;;37.80;;
52041;SDS011;38052;45.944;13.624;2022-10-16T00:58:25;50.70;;;38.22;;
52041;SDS011;38052;45.944;13.624;2022-10-16T01:00:52;44.63;;;37.70;;
52041;SDS011;38052;45.944;13.624;2022-10-16T01:03:37;50.60;;;37.53;;
52041;SDS011;38052;45.944;13.624;2022-10-16T01:11:33;44.47;;;37.20;;
52041;SDS011;38052;45.944;13.624;2022-10-16T01:14:03;47.15;;;37.63;;
52041;SDS011;38052;45.944;13.624;2022-10-16T01:16:34;46.35;;;37.35;;
52041;SDS011;38052;45.944;13.624;2022-10-16T01:19:04;45.60;;;36.67;;
52041;SDS011;38052;45.944;13.624;2022-10-16T01:21:38;46.58;;;38.35;;
52041;SDS011;38052;45.944;13.624;2022-10-16T01:29:30;52.92;;;38.50;;
52041;SDS011;38052;45.944;13.624;2022-10-16T01:32:00;43.80;;;36.08;;
52041;SDS011;38052;45.944;13.624;2022-10-16T01:34:47;44.58;;;36.42;;
52041;SDS011;38052;45.944;13.624;2022-10-16T01:37:15;42.13;;;34.78;;
52041;SDS011;38052;45.944;13.624;2022-10-16T01:39:45;43.67;;;36.17;;
52041;SDS011;38052;45.944;13.624;2022-10-16T01:42:16;42.90;;;37.92;;
52041;SDS011;38052;45.944;13.624;2022-10-16T01:44:45;48.05;;;37.67;;
52041;SDS011;38052;45.944;13.624;2022-10-16T01:47:12;46.10;;;36.53;;
52041;SDS011;38052;45.944;13.624;2022-10-16T01:49:39;51.92;;;38.25;;
52041;SDS011;38052;45.944;13.624;2022-10-16T01:52:06;46.13;;;36.10;;
52041;SDS011;38052;45.944;13.624;2022-10-16T01:54:34;46.17;;;36.60;;
52041;SDS011;38052;45.944;13.624;2022-10-16T01:57:01;49.67;;;38.38;;
52041;SDS011;38052;45.944;13.624;2022-10-16T01:59:29;46.47;;;38.78;;
52041;SDS011;38052;45.944;13.624;2022-10-16T02:02:01;50.03;;;38.58;;
52041;SDS011;38052;45.944;13.624;2022-10-16T02:04:31;49.15;;;37.65;;
52041;SDS011;38052;45.944;13.624;2022-10-16T02:06:58;45.30;;;37.45;;
52041;SDS011;38052;45.944;13.624;2022-10-16T02:09:25;47.22;;;38.85;;
52041;SDS011;38052;45.944;13.624;2022-10-16T02:11:54;47.20;;;38.47;;
52041;SDS011;38052;45.944;13.624;2022-10-16T02:14:23;50.00;;;38.83;;
52041;SDS011;38052;45.944;13.624;2022-10-16T02:16:49;47.80;;;39.92;;
52041;SDS011;38052;45.944;13.624;2022-10-16T02:19:16;47.35;;;39.67;;
52041;SDS011;38052;45.944;13.624;2022-10-16T02:21:49;48.65;;;39.08;;
52041;SDS011;38052;45.944;13.624;2022-10-16T02:24:24;50.03;;;36.88;;
52041;SDS011;38052;45.944;13.624;2022-10-16T02:26:57;52.65;;;38.88;;
52041;SDS011;38052;45.944;13.624;2022-10-16T02:29:25;49.38;;;38.65;;
52041;SDS011;38052;45.944;13.624;2022-10-16T02:31:59;47.83;;;37.90;;
52041;SDS011;38052;45.944;13.624;2022-10-16T02:34:27;51.15;;;39.58;;
52041;SDS011;38052;45.944;13.624;2022-10-16T02:36:56;49.35;;;38.22;;
52041;SDS011;38052;45.944;13.624;2022-10-16T02:39:23;46.08;;;37.60;;
52041;SDS011;38052;45.944;13.624;2022-10-16T02:41:49;46.10;;;38.95;;
52041;SDS011;38052;45.944;13.624;2022-10-16T02:44:17;44.13;;;37.78;;
52041;SDS011;38052;45.944;13.624;2022-10-16T02:46:43;50.35;;;39.60;;
52041;SDS011;38052;45.944;13.624;2022-10-16T02:49:10;44.50;;;37.28;;
52041;SDS011;38052;45.944;13.624;2022-10-16T02:51:36;51.35;;;39.33;;
52041;SDS011;38052;45.944;13.624;2022-10-16T02:54:03;50.50;;;39.60;;
52041;SDS011;38052;45.944;13.624;2022-10-16T02:56:29;51.70;;;40.00;;
52041;SDS011;38052;45.944;13.624;2022-10-16T02:58:56;45.58;;;37.53;;
52041;SDS011;38052;45.944;13.624;2022-10-16T03:01:22;51.95;;;38.42;;
52041;SDS011;38052;45.944;13.624;2022-10-16T03:03:49;55.15;;;42.28;;
52041;SDS011;38052;45.944;13.624;2022-10-16T03:06:15;51.42;;;38.13;;
52041;SDS011;38052;45.944;13.624;2022-10-16T03:08:42;54.25;;;41.10;;
52041;SDS011;38052;45.944;13.624;2022-10-16T03:11:08;49.05;;;38.10;;
52041;SDS011;38052;45.944;13.624;2022-10-16T03:13:35;47.22;;;37.78;;
52041;SDS011;38052;45.944;13.624;2022-10-16T03:16:01;50.85;;;37.75;;
52041;SDS011;38052;45.944;13.624;2022-10-16T03:18:27;50.10;;;39.05;;
52041;SDS011;38052;45.944;13.624;2022-10-16T03:20:54;49.60;;;40.42;;
52041;SDS011;38052;45.944;13.624;2022-10-16T03:23:20;49.08;;;39.08;;
52041;SDS011;38052;45.944;13.624;2022-10-16T03:25:47;52.00;;;39.08;;
52041;SDS011;38052;45.944;13.624;2022-10-16T03:28:14;52.67;;;39.75;;
52041;SDS011;38052;45.944;13.624;2022-10-16T03:30:40;48.67;;;38.03;;
52041;SDS011;38052;45.944;13.624;2022-10-16T03:33:07;51.00;;;37.38;;
52041;SDS011;38052;45.944;13.624;2022-10-16T03:35:33;48.38;;;37.00;;
52041;SDS011;38052;45.944;13.624;2022-10-16T03:38:00;49.80;;;40.50;;
52041;SDS011;38052;45.944;13.624;2022-10-16T03:40:26;54.40;;;40.63;;
52041;SDS011;38052;45.944;13.624;2022-10-16T03:42:53;54.80;;;38.83;;
52041;SDS011;38052;45.944;13.624;2022-10-16T03:45:22;49.15;;;38.13;;
52041;SDS011;38052;45.944;13.624;2022-10-16T03:47:48;51.63;;;39.60;;
52041;SDS011;38052;45.944;13.624;2022-10-16T03:50:15;45.67;;;38.95;;
52041;SDS011;38052;45.944;13.624;2022-10-16T03:52:42;48.03;;;37.72;;
52041;SDS011;38052;45.944;13.624;2022-10-16T03:55:09;47.72;;;38.78;;
52041;SDS011;38052;45.944;13.624;2022-10-16T03:57:36;45.33;;;37.30;;
52041;SDS011;38052;45.944;13.624;2022-10-16T04:00:02;51.17;;;39.95;;
52041;SDS011;38052;45.944;13.624;2022-10-16T04:02:29;48.60;;;38.42;;
52041;SDS011;38052;45.944;13.624;2022-10-16T04:04:55;47.67;;;36.55;;
52041;SDS011;38052;45.944;13.624;2022-10-16T04:07:21;54.22;;;41.13;;
52041;SDS011;38052;45.944;13.624;2022-10-16T04:09:48;55.17;;;40.15;;
52041;SDS011;38052;45.944;13.624;2022-10-16T04:12:17;56.50;;;40.15;;
52041;SDS011;38052;45.944;13.624;2022-10-16T04:14:43;49.75;;;39.33;;
52041;SDS011;38052;45.944;13.624;2022-10-16T04:17:10;54.55;;;41.53;;
52041;SDS011;38052;45.944;13.624;2022-10-16T04:19:36;49.03;;;37.78;;
52041;SDS011;38052;45.944;13.624;2022-10-16T04:22:02;49.85;;;38.75;;
52041;SDS011;38052;45.944;13.624;2022-10-16T04:24:28;56.53;;;41.47;;
52041;SDS011;38052;45.944;13.624;2022-10-16T04:26:55;49.88;;;38.10;;
52041;SDS011;38052;45.944;13.624;2022-10-16T04:29:21;55.30;;;40.90;;
52041;SDS011;38052;45.944;13.624;2022-10-16T04:31:48;50.72;;;39.30;;
52041;SDS011;38052;45.944;13.624;2022-10-16T04:34:14;48.35;;;39.70;;
52041;SDS011;38052;45.944;13.624;2022-10-16T04:36:41;55.53;;;40.38;;
52041;SDS011;38052;45.944;13.624;2022-10-16T04:39:08;50.97;;;38.88;;
52041;SDS011;38052;45.944;13.624;2022-10-16T04:41:34;50.67;;;40.67;;
52041;SDS011;38052;45.944;13.624;2022-10-16T04:44:01;47.35;;;38.13;;
52041;SDS011;38052;45.944;13.624;2022-10-16T04:46:27;52.28;;;41.53;;
52041;SDS011;38052;45.944;13.624;2022-10-16T04:48:54;51.58;;;40.03;;
52041;SDS011;38052;45.944;13.624;2022-10-16T04:51:20;52.55;;;40.30;;
52041;SDS011;38052;45.944;13.624;2022-10-16T04:53:46;48.47;;;39.88;;
52041;SDS011;38052;45.944;13.624;2022-10-16T04:56:12;59.67;;;41.25;;
52041;SDS011;38052;45.944;13.624;2022-10-16T04:58:40;55.30;;;41.13;;
52041;SDS011;38052;45.944;13.624;2022-10-16T05:01:06;52.08;;;42.08;;
52041;SDS011;38052;45.944;13.624;2022-10-16T05:03:33;53.95;;;41.13;;
52041;SDS011;38052;45.944;13.624;2022-10-16T05:05:59;53.70;;;41.47;;
52041;SDS011;38052;45.944;13.624;2022-10-16T05:08:25;51.50;;;38.95;;
52041;SDS011;38052;45.944;13.624;2022-10-16T05:10:52;53.38;;;40.42;;
52041;SDS011;38052;45.944;13.624;2022-10-16T05:13:18;55.25;;;42.50;;
52041;SDS011;38052;45.944;13.624;2022-10-16T05:15:48;56.75;;;41.72;;
52041;SDS011;38052;45.944;13.624;2022-10-16T05:18:15;50.42;;;42.13;;
52041;SDS011;38052;45.944;13.624;2022-10-16T05:20:41;58.10;;;42.42;;
52041;SDS011;38052;45.944;13.624;2022-10-16T05:23:08;51.08;;;39.05;;
52041;SDS011;38052;45.944;13.624;2022-10-16T05:25:38;51.95;;;40.05;;
52041;SDS011;38052;45.944;13.624;2022-10-16T05:28:05;53.33;;;39.15;;
52041;SDS011;38052;45.944;13.624;2022-10-16T05:30:31;54.92;;;40.58;;
52041;SDS011;38052;45.944;13.624;2022-10-16T05:32:57;53.30;;;41.35;;
52041;SDS011;38052;45.944;13.624;2022-10-16T05:35:23;55.40;;;42.28;;
52041;SDS011;38052;45.944;13.624;2022-10-16T05:37:49;59.72;;;41.65;;
52041;SDS011;38052;45.944;13.624;2022-10-16T05:40:16;55.60;;;42.85;;
52041;SDS011;38052;45.944;13.624;2022-10-16T05:42:42;56.38;;;40.47;;
52041;SDS011;38052;45.944;13.624;2022-10-16T05:45:10;53.40;;;40.30;;
52041;SDS011;38052;45.944;13.624;2022-10-16T05:47:37;54.03;;;41.75;;
52041;SDS011;38052;45.944;13.624;2022-10-16T05:50:03;53.67;;;41.17;;
52041;SDS011;38052;45.944;13.624;2022-10-16T05:52:29;49.47;;;39.42;;
52041;SDS011;38052;45.944;13.624;2022-10-16T05:54:55;55.22;;;44.15;;
52041;SDS011;38052;45.944;13.624;2022-10-16T05:57:21;59.35;;;42.47;;
52041;SDS011;38052;45.944;13.624;2022-10-16T05:59:48;52.63;;;40.70;;
52041;SDS011;38052;45.944;13.624;2022-10-16T06:02:14;54.78;;;40.85;;
52041;SDS011;38052;45.944;13.624;2022-10-16T06:04:41;52.72;;;39.55;;
52041;SDS011;38052;45.944;13.624;2022-10-16T06:07:07;51.80;;;39.28;;
52041;SDS011;38052;45.944;13.624;2022-10-16T06:09:33;58.28;;;42.38;;
52041;SDS011;38052;45.944;13.624;2022-10-16T06:11:59;51.13;;;40.10;;
52041;SDS011;38052;45.944;13.624;2022-10-16T06:14:26;51.92;;;41.25;;
52041;SDS011;38052;45.944;13.624;2022-10-16T06:16:52;52.33;;;41.83;;
52041;SDS011;38052;45.944;13.624;2022-10-16T06:19:19;52.67;;;41.85;;
52041;SDS011;38052;45.944;13.624;2022-10-16T06:21:45;51.92;;;41.58;;
52041;SDS011;38052;45.944;13.624;2022-10-16T06:24:11;52.08;;;41.08;;
52041;SDS011;38052;45.944;13.624;2022-10-16T06:26:38;54.90;;;43.10;;
52041;SDS011;38052;45.944;13.624;2022-10-16T06:29:04;57.83;;;42.53;;
52041;SDS011;38052;45.944;13.624;2022-10-16T06:31:31;51.28;;;40.60;;
52041;SDS011;38052;45.944;13.624;2022-10-16T06:33:58;51.97;;;40.95;;
52041;SDS011;38052;45.944;13.624;2022-10-16T06:36:25;52.22;;;41.78;;
52041;SDS011;38052;45.944;13.624;2022-10-16T06:38:51;53.47;;;41.28;;
52041;SDS011;38052;45.944;13.624;2022-10-16T06:41:20;45.53;;;38.95;;
52041;SDS011;38052;45.944;13.624;2022-10-16T06:43:46;50.80;;;38.90;;
52041;SDS011;38052;45.944;13.624;2022-10-16T06:46:13;49.13;;;40.53;;
52041;SDS011;38052;45.944;13.624;2022-10-16T06:48:40;48.38;;;40.08;;
52041;SDS011;38052;45.944;13.624;2022-10-16T06:51:11;53.25;;;39.17;;
52041;SDS011;38052;45.944;13.624;2022-10-16T06:53:39;49.08;;;40.17;;
52041;SDS011;38052;45.944;13.624;2022-10-16T06:56:07;47.15;;;37.75;;
52041;SDS011;38052;45.944;13.624;2022-10-16T06:58:33;47.15;;;39.60;;
52041;SDS011;38052;45.944;13.624;2022-10-16T07:01:00;52.38;;;38.90;;
52041;SDS011;38052;45.944;13.624;2022-10-16T07:03:26;44.28;;;37.20;;
52041;SDS011;38052;45.944;13.624;2022-10-16T07:05:53;47.22;;;39.60;;
52041;SDS011;38052;45.944;13.624;2022-10-16T07:08:20;50.80;;;38.90;;
52041;SDS011;38052;45.944;13.624;2022-10-16T07:10:47;46.28;;;37.72;;
52041;SDS011;38052;45.944;13.624;2022-10-16T07:13:13;51.50;;;40.40;;
52041;SDS011;38052;45.944;13.624;2022-10-16T07:15:40;47.10;;;38.42;;
52041;SDS011;38052;45.944;13.624;2022-10-16T07:18:06;51.22;;;37.83;;
52041;SDS011;38052;45.944;13.624;2022-10-16T07:20:33;46.70;;;37.13;;
52041;SDS011;38052;45.944;13.624;2022-10-16T07:22:59;50.65;;;38.83;;
52041;SDS011;38052;45.944;13.624;2022-10-16T07:25:25;48.20;;;36.63;;
52041;SDS011;38052;45.944;13.624;2022-10-16T07:27:52;46.60;;;36.95;;
52041;SDS011;38052;45.944;13.624;2022-10-16T07:30:21;42.17;;;33.80;;
52041;SDS011;38052;45.944;13.624;2022-10-16T07:32:48;50.17;;;38.88;;
52041;SDS011;38052;45.944;13.624;2022-10-16T07:35:14;48.45;;;37.75;;
52041;SDS011;38052;45.944;13.624;2022-10-16T07:37:43;40.95;;;33.85;;
52041;SDS011;38052;45.944;13.624;2022-10-16T07:40:09;43.78;;;36.42;;
52041;SDS011;38052;45.944;13.624;2022-10-16T07:42:36;46.47;;;36.05;;
52041;SDS011;38052;45.944;13.624;2022-10-16T07:45:02;45.20;;;35.47;;
52041;SDS011;38052;45.944;13.624;2022-10-16T07:47:29;49.50;;;36.97;;
52041;SDS011;38052;45.944;13.624;2022-10-16T07:49:56;45.20;;;36.42;;
52041;SDS011;38052;45.944;13.624;2022-10-16T07:52:22;44.30;;;36.55;;
52041;SDS011;38052;45.944;13.624;2022-10-16T07:54:49;44.90;;;36.97;;
52041;SDS011;38052;45.944;13.624;2022-10-16T07:57:15;48.60;;;38.05;;
52041;SDS011;38052;45.944;13.624;2022-10-16T07:59:44;44.60;;;35.20;;
52041;SDS011;38052;45.944;13.624;2022-10-16T08:02:11;41.55;;;35.20;;
52041;SDS011;38052;45.944;13.624;2022-10-16T08:04:37;41.75;;;35.22;;
52041;SDS011;38052;45.944;13.624;2022-10-16T08:07:04;43.03;;;35.35;;
52041;SDS011;38052;45.944;13.624;2022-10-16T08:09:30;42.60;;;34.97;;
52041;SDS011;38052;45.944;13.624;2022-10-16T08:11:57;43.75;;;36.58;;
52041;SDS011;38052;45.944;13.624;2022-10-16T08:14:23;41.83;;;34.80;;
52041;SDS011;38052;45.944;13.624;2022-10-16T08:16:50;44.92;;;34.20;;
52041;SDS011;38052;45.944;13.624;2022-10-16T08:19:16;41.47;;;35.55;;
52041;SDS011;38052;45.944;13.624;2022-10-16T08:21:46;43.22;;;33.38;;
52041;SDS011;38052;45.944;13.624;2022-10-16T08:24:13;41.53;;;34.40;;
52041;SDS011;38052;45.944;13.624;2022-10-16T08:26:39;45.08;;;34.85;;
52041;SDS011;38052;45.944;13.624;2022-10-16T08:29:06;40.72;;;33.20;;
52041;SDS011;38052;45.944;13.624;2022-10-16T08:31:32;39.63;;;31.38;;
52041;SDS011;38052;45.944;13.624;2022-10-16T08:33:58;45.00;;;35.25;;
52041;SDS011;38052;45.944;13.624;2022-10-16T08:36:25;44.05;;;33.83;;
52041;SDS011;38052;45.944;13.624;2022-10-16T08:38:52;42.67;;;32.13;;
52041;SDS011;38052;45.944;13.624;2022-10-16T08:44:04;42.50;;;33.90;;
52041;SDS011;38052;45.944;13.624;2022-10-16T08:48:59;46.15;;;34.38;;
52041;SDS011;38052;45.944;13.624;2022-10-16T08:51:29;40.42;;;32.38;;
52041;SDS011;38052;45.944;13.624;2022-10-16T08:54:03;39.42;;;34.83;;
52041;SDS011;38052;45.944;13.624;2022-10-16T08:56:30;41.95;;;32.75;;
52041;SDS011;38052;45.944;13.624;2022-10-16T08:58:57;51.20;;;35.50;;
52041;SDS011;38052;45.944;13.624;2022-10-16T09:01:24;42.58;;;35.35;;
52041;SDS011;38052;45.944;13.624;2022-10-16T09:03:55;39.53;;;33.88;;
52041;SDS011;38052;45.944;13.624;2022-10-16T09:14:36;40.25;;;34.53;;
52041;SDS011;38052;45.944;13.624;2022-10-16T09:17:14;39.92;;;35.25;;
52041;SDS011;38052;45.944;13.624;2022-10-16T09:19:46;41.40;;;32.15;;
52041;SDS011;38052;45.944;13.624;2022-10-16T09:22:15;42.40;;;34.00;;
52041;SDS011;38052;45.944;13.624;2022-10-16T09:24:42;37.55;;;31.38;;
52041;SDS011;38052;45.944;13.624;2022-10-16T09:27:12;39.75;;;33.75;;
52041;SDS011;38052;45.944;13.624;2022-10-16T09:29:39;39.95;;;34.75;;
52041;SDS011;38052;45.944;13.624;2022-10-16T09:32:13;42.63;;;34.30;;
52041;SDS011;38052;45.944;13.624;2022-10-16T09:34:43;40.65;;;33.47;;
52041;SDS011;38052;45.944;13.624;2022-10-16T09:37:12;37.45;;;31.45;;
52041;SDS011;38052;45.944;13.624;2022-10-16T09:39:49;41.47;;;35.83;;
52041;SDS011;38052;45.944;13.624;2022-10-16T09:42:32;37.75;;;33.67;;
52041;SDS011;38052;45.944;13.624;2022-10-16T09:45:00;40.67;;;34.50;;
52041;SDS011;38052;45.944;13.624;2022-10-16T09:47:27;37.92;;;33.13;;
52041;SDS011;38052;45.944;13.624;2022-10-16T09:49:55;44.17;;;34.08;;
52041;SDS011;38052;45.944;13.624;2022-10-16T09:52:23;48.97;;;33.28;;
52041;SDS011;38052;45.944;13.624;2022-10-16T09:54:54;38.67;;;34.50;;
52041;SDS011;38052;45.944;13.624;2022-10-16T09:57:21;36.42;;;32.53;;
52041;SDS011;38052;45.944;13.624;2022-10-16T09:59:48;35.85;;;31.88;;
52041;SDS011;38052;45.944;13.624;2022-10-16T10:02:16;40.33;;;33.55;;
52041;SDS011;38052;45.944;13.624;2022-10-16T10:04:50;40.55;;;33.92;;
52041;SDS011;38052;45.944;13.624;2022-10-16T10:07:17;39.53;;;34.80;;
52041;SDS011;38052;45.944;13.624;2022-10-16T10:09:44;41.78;;;33.28;;
52041;SDS011;38052;45.944;13.624;2022-10-16T10:12:30;35.97;;;31.95;;
52041;SDS011;38052;45.944;13.624;2022-10-16T10:15:11;45.80;;;34.67;;
52041;SDS011;38052;45.944;13.624;2022-10-16T10:17:51;36.67;;;32.60;;
52041;SDS011;38052;45.944;13.624;2022-10-16T10:20:31;40.13;;;35.07;;
52041;SDS011;38052;45.944;13.624;2022-10-16T10:22:59;44.17;;;34.90;;
52041;SDS011;38052;45.944;13.624;2022-10-16T10:28:21;41.50;;;34.88;;
52041;SDS011;38052;45.944;13.624;2022-10-16T10:30:59;40.13;;;34.03;;
52041;SDS011;38052;45.944;13.624;2022-10-16T10:36:22;48.25;;;36.17;;
52041;SDS011;38052;45.944;13.624;2022-10-16T10:49:09;44.80;;;36.22;;
52041;SDS011;38052;45.944;13.624;2022-10-16T10:56:55;45.55;;;35.38;;
52041;SDS011;38052;45.944;13.624;2022-10-16T11:02:21;47.42;;;40.38;;
52041;SDS011;38052;45.944;13.624;2022-10-16T11:07:29;50.45;;;41.97;;
52041;SDS011;38052;45.944;13.624;2022-10-16T11:09:58;54.10;;;41.25;;
52041;SDS011;38052;45.944;13.624;2022-10-16T11:12:50;54.53;;;44.08;;
52041;SDS011;38052;45.944;13.624;2022-10-16T11:15:15;52.22;;;41.78;;
52041;SDS011;38052;45.944;13.624;2022-10-16T11:20:23;54.42;;;41.45;;
52041;SDS011;38052;45.944;13.624;2022-10-16T11:22:58;46.75;;;40.65;;
52041;SDS011;38052;45.944;13.624;2022-10-16T11:25:29;53.53;;;40.50;;
52041;SDS011;38052;45.944;13.624;2022-10-16T11:38:39;57.28;;;42.92;;
52041;SDS011;38052;45.944;13.624;2022-10-16T11:46:37;58.78;;;43.05;;
52041;SDS011;38052;45.944;13.624;2022-10-16T11:49:15;53.13;;;43.40;;
52041;SDS011;38052;45.944;13.624;2022-10-16T11:51:48;52.95;;;40.60;;
52041;SDS011;38052;45.944;13.624;2022-10-16T11:56:55;56.38;;;41.25;;
52041;SDS011;38052;45.944;13.624;2022-10-16T11:59:35;47.15;;;40.15;;
52041;SDS011;38052;45.944;13.624;2022-10-16T12:04:49;47.75;;;41.05;;
52041;SDS011;38052;45.944;13.624;2022-10-16T12:07:18;54.42;;;43.00;;
52041;SDS011;38052;45.944;13.624;2022-10-16T12:09:45;53.85;;;42.13;;
52041;SDS011;38052;45.944;13.624;2022-10-16T12:15:02;51.67;;;40.95;;
52041;SDS011;38052;45.944;13.624;2022-10-16T12:17:36;52.33;;;41.78;;
52041;SDS011;38052;45.944;13.624;2022-10-16T12:22:51;49.17;;;40.25;;
52041;SDS011;38052;45.944;13.624;2022-10-16T12:25:21;47.63;;;39.22;;
52041;SDS011;38052;45.944;13.624;2022-10-16T12:30:25;43.42;;;37.70;;
52041;SDS011;38052;45.944;13.624;2022-10-16T12:32:52;50.58;;;40.38;;
52041;SDS011;38052;45.944;13.624;2022-10-16T12:35:21;55.42;;;41.45;;
52041;SDS011;38052;45.944;13.624;2022-10-16T12:37:48;50.03;;;39.55;;
52041;SDS011;38052;45.944;13.624;2022-10-16T12:42:48;47.97;;;36.92;;
52041;SDS011;38052;45.944;13.624;2022-10-16T12:45:26;49.35;;;40.97;;
52041;SDS011;38052;45.944;13.624;2022-10-16T12:47:53;53.67;;;41.10;;
52041;SDS011;38052;45.944;13.624;2022-10-16T12:50:31;52.05;;;40.78;;
52041;SDS011;38052;45.944;13.624;2022-10-16T12:52:59;47.53;;;40.15;;
52041;SDS011;38052;45.944;13.624;2022-10-16T12:55:26;52.47;;;39.75;;
52041;SDS011;38052;45.944;13.624;2022-10-16T12:58:15;55.25;;;41.88;;
52041;SDS011;38052;45.944;13.624;2022-10-16T13:06:04;48.10;;;41.05;;
52041;SDS011;38052;45.944;13.624;2022-10-16T13:13:46;48.20;;;39.38;;
52041;SDS011;38052;45.944;13.624;2022-10-16T13:18:51;53.10;;;39.80;;
52041;SDS011;38052;45.944;13.624;2022-10-16T13:21:35;47.40;;;39.92;;
52041;SDS011;38052;45.944;13.624;2022-10-16T13:26:54;51.95;;;40.95;;
52041;SDS011;38052;45.944;13.624;2022-10-16T13:29:22;53.92;;;41.95;;
52041;SDS011;38052;45.944;13.624;2022-10-16T13:31:49;48.97;;;38.25;;
52041;SDS011;38052;45.944;13.624;2022-10-16T13:34:17;53.13;;;39.72;;
52041;SDS011;38052;45.944;13.624;2022-10-16T13:36:45;50.65;;;41.45;;
52041;SDS011;38052;45.944;13.624;2022-10-16T13:41:38;50.63;;;39.88;;
52041;SDS011;38052;45.944;13.624;2022-10-16T13:44:05;47.22;;;39.58;;
52041;SDS011;38052;45.944;13.624;2022-10-16T13:46:31;46.05;;;38.55;;
52041;SDS011;38052;45.944;13.624;2022-10-16T13:49:00;47.83;;;39.25;;
52041;SDS011;38052;45.944;13.624;2022-10-16T13:51:27;51.25;;;39.80;;
52041;SDS011;38052;45.944;13.624;2022-10-16T13:53:54;49.42;;;38.60;;
52041;SDS011;38052;45.944;13.624;2022-10-16T13:56:25;51.85;;;37.90;;
52041;SDS011;38052;45.944;13.624;2022-10-16T13:58:59;51.08;;;40.83;;
52041;SDS011;38052;45.944;13.624;2022-10-16T14:01:32;49.05;;;40.05;;
52041;SDS011;38052;45.944;13.624;2022-10-16T14:04:04;49.60;;;39.35;;
52041;SDS011;38052;45.944;13.624;2022-10-16T14:06:31;52.70;;;38.78;;
52041;SDS011;38052;45.944;13.624;2022-10-16T14:09:08;51.60;;;40.45;;
52041;SDS011;38052;45.944;13.624;2022-10-16T14:11:36;52.58;;;42.85;;
52041;SDS011;38052;45.944;13.624;2022-10-16T14:14:10;49.38;;;40.97;;
52041;SDS011;38052;45.944;13.624;2022-10-16T14:16:37;51.72;;;39.22;;
52041;SDS011;38052;45.944;13.624;2022-10-16T14:19:06;45.92;;;40.08;;
52041;SDS011;38052;45.944;13.624;2022-10-16T14:21:40;46.92;;;38.03;;
52041;SDS011;38052;45.944;13.624;2022-10-16T14:24:13;50.78;;;38.70;;
52041;SDS011;38052;45.944;13.624;2022-10-16T14:26:41;53.20;;;42.33;;
52041;SDS011;38052;45.944;13.624;2022-10-16T14:29:11;51.72;;;40.50;;
52041;SDS011;38052;45.944;13.624;2022-10-16T14:31:38;49.97;;;40.38;;
52041;SDS011;38052;45.944;13.624;2022-10-16T14:34:21;50.00;;;38.65;;
52041;SDS011;38052;45.944;13.624;2022-10-16T14:36:49;50.20;;;39.78;;
52041;SDS011;38052;45.944;13.624;2022-10-16T14:39:24;56.72;;;40.97;;
52041;SDS011;38052;45.944;13.624;2022-10-16T14:41:52;45.67;;;38.60;;
52041;SDS011;38052;45.944;13.624;2022-10-16T14:44:18;47.90;;;38.72;;
52041;SDS011;38052;45.944;13.624;2022-10-16T14:46:47;50.17;;;40.35;;
52041;SDS011;38052;45.944;13.624;2022-10-16T14:49:15;47.85;;;40.03;;
52041;SDS011;38052;45.944;13.624;2022-10-16T14:51:42;49.35;;;40.67;;
52041;SDS011;38052;45.944;13.624;2022-10-16T14:54:10;54.75;;;37.65;;
52041;SDS011;38052;45.944;13.624;2022-10-16T14:56:56;51.67;;;40.17;;
52041;SDS011;38052;45.944;13.624;2022-10-16T14:59:33;49.78;;;38.28;;
52041;SDS011;38052;45.944;13.624;2022-10-16T15:04:46;48.85;;;39.53;;
52041;SDS011;38052;45.944;13.624;2022-10-16T15:07:13;55.22;;;40.53;;
52041;SDS011;38052;45.944;13.624;2022-10-16T15:09:39;53.28;;;39.80;;
52041;SDS011;38052;45.944;13.624;2022-10-16T15:12:06;51.15;;;38.30;;
52041;SDS011;38052;45.944;13.624;2022-10-16T15:14:32;55.72;;;40.60;;
52041;SDS011;38052;45.944;13.624;2022-10-16T15:16:58;52.15;;;39.85;;
52041;SDS011;38052;45.944;13.624;2022-10-16T15:19:25;48.83;;;38.10;;
52041;SDS011;38052;45.944;13.624;2022-10-16T15:21:52;53.85;;;39.92;;
52041;SDS011;38052;45.944;13.624;2022-10-16T15:24:18;50.90;;;41.47;;
52041;SDS011;38052;45.944;13.624;2022-10-16T15:26:45;50.50;;;39.65;;
52041;SDS011;38052;45.944;13.624;2022-10-16T15:29:12;50.75;;;40.83;;
52041;SDS011;38052;45.944;13.624;2022-10-16T15:31:38;52.25;;;39.00;;
52041;SDS011;38052;45.944;13.624;2022-10-16T15:34:08;56.45;;;40.17;;
52041;SDS011;38052;45.944;13.624;2022-10-16T15:36:35;49.10;;;40.67;;
52041;SDS011;38052;45.944;13.624;2022-10-16T15:39:02;48.05;;;38.38;;
52041;SDS011;38052;45.944;13.624;2022-10-16T15:41:29;45.75;;;38.45;;
52041;SDS011;38052;45.944;13.624;2022-10-16T15:43:55;46.83;;;38.97;;
52041;SDS011;38052;45.944;13.624;2022-10-16T15:46:22;47.72;;;39.13;;
52041;SDS011;38052;45.944;13.624;2022-10-16T15:48:49;49.97;;;40.03;;
52041;SDS011;38052;45.944;13.624;2022-10-16T15:51:16;48.80;;;41.45;;
52041;SDS011;38052;45.944;13.624;2022-10-16T15:53:43;51.58;;;40.95;;
52041;SDS011;38052;45.944;13.624;2022-10-16T15:56:11;47.70;;;38.85;;
52041;SDS011;38052;45.944;13.624;2022-10-16T15:58:38;58.00;;;45.60;;
52041;SDS011;38052;45.944;13.624;2022-10-16T16:01:05;54.17;;;42.17;;
52041;SDS011;38052;45.944;13.624;2022-10-16T16:03:32;51.45;;;40.08;;